Time;durP1;ratioP1;P1;durP2;ratioP2;P2;SDS_P1;SDS_P2;PMS_P1;PMS_P2;Temp;Humidity;BMP_temperature;BMP_pressure;BME280_temperature;BME280_humidity;BME280_pressure;Samples;Min_cycle;Max_cycle;Signal;HPM_P1;HPM_P2
2021/12/18 00:01:08;;;;;;;9.52;6.30;;;;;;;7.70;77.72;101410.44;5136138;27;20321;-75
2021/12/18 00:03:35;;;;;;;10.82;9.50;;;;;;;7.56;78.82;101412.50;5135918;27;20217;-74
2021/12/18 00:06:05;;;;;;;8.45;7.65;;;;;;;7.64;78.66;101404.31;5152935;27;20208;-74
2021/12/18 00:08:34;;;;;;;9.18;7.65;;;;;;;7.63;78.32;101410.59;5152862;27;20284;-74
2021/12/18 00:11:01;;;;;;;12.38;8.57;;;;;;;7.52;79.00;101408.09;5153121;27;20616;-75
2021/12/18 00:13:27;;;;;;;13.18;9.63;;;;;;;7.52;78.98;101416.13;5150107;27;20512;-73
2021/12/18 00:15:56;;;;;;;9.55;7.03;;;;;;;7.62;78.83;101420.44;5148005;27;20196;-75
2021/12/18 00:18:23;;;;;;;9.98;7.45;;;;;;;7.49;79.12;101409.03;5148224;27;20495;-74
2021/12/18 00:20:50;;;;;;;12.65;9.88;;;;;;;7.30;80.29;101405.78;5131982;28;20201;-74
2021/12/18 00:23:16;;;;;;;9.85;8.20;;;;;;;7.40;79.74;101402.94;5141034;27;20261;-74
2021/12/18 00:25:43;;;;;;;9.65;7.70;;;;;;;7.30;80.39;101397.72;5153198;27;20279;-74
2021/12/18 00:28:11;;;;;;;12.20;7.65;;;;;;;7.34;80.17;101390.50;5152857;27;20605;-74
2021/12/18 00:30:39;;;;;;;10.52;7.82;;;;;;;7.27;80.38;101397.75;5152401;27;20324;-75
2021/12/18 00:33:09;;;;;;;9.43;7.53;;;;;;;6.98;81.70;101394.63;5144569;27;20725;-75
2021/12/18 00:35:35;;;;;;;8.90;7.78;;;;;;;6.91;82.19;101396.53;5131790;28;20199;-75
2021/12/18 00:38:03;;;;;;;9.75;7.70;;;;;;;6.89;82.76;101396.53;5132287;28;20196;-75
2021/12/18 00:40:43;;;;;;;10.23;7.85;;;;;;;6.79;83.51;101400.25;5131816;28;20220;-74
2021/12/18 00:43:22;;;;;;;9.95;7.70;;;;;;;6.77;83.61;101396.72;5140042;27;20286;-74
2021/12/18 00:45:49;;;;;;;13.25;9.70;;;;;;;6.84;83.40;101385.00;5152917;27;20183;-73
2021/12/18 00:48:17;;;;;;;9.25;7.40;;;;;;;6.91;82.86;101380.44;5146487;27;20209;-73
2021/12/18 00:50:43;;;;;;;11.10;8.25;;;;;;;6.77;83.33;101386.00;5133424;27;20704;-74
2021/12/18 00:53:10;;;;;;;11.35;8.32;;;;;;;6.67;83.84;101390.63;5145939;27;20187;-75
2021/12/18 00:55:37;;;;;;;9.82;8.18;;;;;;;6.62;84.38;101388.88;5156431;27;20199;-74
2021/12/18 00:58:05;;;;;;;10.63;8.88;;;;;;;6.48;84.95;101395.31;5156013;27;20188;-74
2021/12/18 01:00:32;;;;;;;11.02;9.40;;;;;;;6.61;84.72;101393.38;5140984;27;20187;-75
2021/12/18 01:03:01;;;;;;;14.30;9.32;;;;;;;6.38;85.77;101390.09;5142115;27;20263;-74
2021/12/18 01:05:34;;;;;;;12.57;9.75;;;;;;;6.31;86.65;101388.38;5135354;27;20187;-74
2021/12/18 01:08:01;;;;;;;12.20;10.55;;;;;;;6.33;86.83;101381.22;5135570;27;20274;-74
2021/12/18 01:10:42;;;;;;;15.25;10.88;;;;;;;6.42;86.43;101387.38;5149172;27;20597;-74
2021/12/18 01:13:13;;;;;;;16.60;11.93;;;;;;;6.29;87.16;101391.09;5156155;27;20186;-73
2021/12/18 01:15:45;;;;;;;12.63;10.52;;;;;;;6.34;87.07;101391.94;5156358;27;20215;-74
2021/12/18 01:23:42;;;;;;;16.50;10.70;;;;;;;6.33;87.07;101389.25;5155676;27;20235;-74
2021/12/18 01:26:08;;;;;;;12.18;10.38;;;;;;;6.36;86.82;101386.56;5154463;27;20198;-73
2021/12/18 01:28:35;;;;;;;12.82;10.75;;;;;;;6.38;86.63;101391.00;5139472;27;20198;-74
2021/12/18 01:31:02;;;;;;;14.57;12.15;;;;;;;6.37;86.45;101388.31;5140358;27;20233;-73
2021/12/18 01:33:29;;;;;;;13.32;11.30;;;;;;;6.35;86.23;101385.66;5135102;27;20270;-73
2021/12/18 01:36:00;;;;;;;15.65;13.95;;;;;;;6.23;86.63;101388.50;5134979;27;20299;-73
2021/12/18 01:38:28;;;;;;;16.83;14.05;;;;;;;6.18;87.28;101390.34;5151505;27;20569;-73
2021/12/18 01:40:56;;;;;;;14.98;13.35;;;;;;;6.10;87.82;101389.53;5155261;27;20188;-74
2021/12/18 01:46:19;;;;;;;13.52;11.90;;;;;;;6.13;88.08;101389.47;5141957;27;20179;-74
2021/12/18 01:51:47;;;;;;;14.90;11.65;;;;;;;6.04;88.63;101394.06;5134580;27;20187;-75
2021/12/18 01:54:15;;;;;;;15.25;11.70;;;;;;;6.08;88.46;101388.66;5134864;27;20179;-73
2021/12/18 01:56:42;;;;;;;14.48;10.13;;;;;;;6.29;87.74;101396.44;5138297;27;20705;-73
2021/12/18 01:59:09;;;;;;;15.02;10.95;;;;;;;6.16;88.14;101393.03;5135308;27;20223;-75
2021/12/18 02:01:36;;;;;;;14.65;10.68;;;;;;;6.07;88.80;101384.22;5139961;27;20627;-74
2021/12/18 02:04:03;;;;;;;13.50;12.02;;;;;;;6.09;88.76;101394.00;5134046;27;20210;-74
2021/12/18 02:06:31;;;;;;;15.07;11.80;;;;;;;6.02;89.27;101387.81;5134476;27;20180;-75
2021/12/18 02:08:58;;;;;;;15.18;11.68;;;;;;;6.05;89.51;101393.13;5134316;27;20621;-75
2021/12/18 02:11:29;;;;;;;12.82;9.98;;;;;;;6.00;89.63;101392.31;5135113;27;20198;-74
2021/12/18 02:14:23;;;;;;;13.50;10.48;;;;;;;5.99;90.11;101392.31;5137783;27;20544;-74
2021/12/18 02:19:51;;;;;;;14.10;11.05;;;;;;;5.83;90.25;101384.44;5133878;27;20316;-74
2021/12/18 02:22:23;;;;;;;13.18;10.68;;;;;;;5.82;90.49;101384.44;5141873;27;20194;-74
2021/12/18 02:24:49;;;;;;;13.63;10.57;;;;;;;6.13;89.78;101384.13;5154732;27;20660;-74
2021/12/18 02:27:16;;;;;;;12.55;10.82;;;;;;;6.24;88.96;101384.91;5146898;27;20210;-74
2021/12/18 02:29:43;;;;;;;14.02;10.38;;;;;;;6.25;88.57;101389.34;5133811;27;20234;-74
2021/12/18 02:32:15;;;;;;;16.25;12.73;;;;;;;6.35;88.15;101384.78;5140206;27;20655;-74
2021/12/18 02:34:51;;;;;;;18.80;10.50;;;;;;;6.33;87.79;101379.47;5153262;27;20186;-74
2021/12/18 02:37:29;;;;;;;16.85;11.05;;;;;;;6.29;88.42;101377.72;5154353;27;20188;-75
2021/12/18 02:40:49;;;;;;;15.57;11.35;;;;;;;6.42;87.42;101378.44;5154464;27;20199;-75
2021/12/18 02:42:44;;;;;;;18.90;13.25;;;;;;;6.42;87.35;101379.34;5152414;27;20192;-74
2021/12/18 02:45:12;;;;;;;19.00;12.05;;;;;;;6.33;87.74;101366.09;5154328;27;20574;-75
2021/12/18 02:47:39;;;;;;;15.60;12.30;;;;;;;6.24;88.91;101374.19;5154426;27;20179;-74
2021/12/18 02:50:07;;;;;;;22.50;14.65;;;;;;;6.30;88.74;101370.56;5154241;27;20206;-74
2021/12/18 02:52:35;;;;;;;17.77;11.80;;;;;;;6.37;88.51;101377.63;5145487;27;20202;-74
2021/12/18 02:55:02;;;;;;;18.27;12.32;;;;;;;6.29;88.65;101368.78;5154201;27;20190;-74
2021/12/18 02:57:28;;;;;;;15.93;10.90;;;;;;;6.43;88.52;101362.38;5141898;27;20188;-74
2021/12/18 02:59:57;;;;;;;16.45;11.60;;;;;;;6.39;88.24;101376.69;5135744;27;20195;-75
2021/12/18 03:02:25;;;;;;;16.27;11.88;;;;;;;6.47;88.02;101373.94;5137216;27;20282;-75
2021/12/18 03:04:57;;;;;;;17.27;12.88;;;;;;;6.50;88.04;101367.66;5133410;27;20334;-75
2021/12/18 03:07:26;;;;;;;15.82;12.40;;;;;;;6.55;87.28;101369.34;5133326;27;20191;-75
2021/12/18 03:23:45;;;;;;;16.23;12.85;;;;;;;6.48;87.93;101365.00;5150576;27;20207;-75
2021/12/18 03:26:14;;;;;;;17.10;12.95;;;;;;;6.38;88.47;101363.34;5148867;27;20231;-75
2021/12/18 03:28:41;;;;;;;17.52;12.68;;;;;;;6.32;89.21;101364.28;5154029;27;20189;-73
2021/12/18 03:31:08;;;;;;;21.75;14.13;;;;;;;6.28;89.86;101361.69;5153266;27;20283;-74
2021/12/18 03:33:36;;;;;;;18.00;13.55;;;;;;;6.33;89.10;101367.84;5153510;27;20229;-75
2021/12/18 03:36:04;;;;;;;19.63;13.52;;;;;;;6.32;89.71;101363.41;5144773;27;20221;-75
2021/12/18 03:38:31;;;;;;;18.45;14.68;;;;;;;6.60;88.24;101361.25;5153124;27;20194;-73
2021/12/18 03:40:57;;;;;;;18.95;14.68;;;;;;;6.54;88.65;101359.56;5136873;27;20282;-74
2021/12/18 03:43:25;;;;;;;19.30;13.65;;;;;;;6.60;88.00;101359.50;5132815;27;20559;-74
2021/12/18 03:45:52;;;;;;;20.02;12.77;;;;;;;6.49;88.47;101364.09;5139375;27;20223;-73
2021/12/18 03:48:19;;;;;;;18.17;12.75;;;;;;;6.47;89.03;101356.09;5132602;28;20657;-73
2021/12/18 03:50:47;;;;;;;18.65;13.70;;;;;;;6.73;87.39;101346.78;5132669;28;20190;-73
2021/12/18 03:53:14;;;;;;;17.20;12.68;;;;;;;6.79;86.75;101349.41;5132633;28;20197;-73
2021/12/18 03:55:40;;;;;;;20.05;14.07;;;;;;;6.82;86.30;101356.50;5147482;27;20190;-74
2021/12/18 03:58:07;;;;;;;17.75;13.50;;;;;;;6.81;86.51;101350.25;5153377;27;20189;-75
2021/12/18 04:00:35;;;;;;;18.50;13.13;;;;;;;6.77;86.34;101350.31;5152888;27;20207;-75
2021/12/18 04:03:02;;;;;;;19.73;13.02;;;;;;;6.75;87.15;101363.72;5153275;27;20204;-74
2021/12/18 04:05:29;;;;;;;20.27;13.00;;;;;;;6.60;87.56;101358.56;5142735;27;20203;-74
2021/12/18 04:08:08;;;;;;;17.70;13.35;;;;;;;6.62;88.03;101368.34;5132109;28;20215;-74
2021/12/18 04:10:35;;;;;;;21.25;14.93;;;;;;;6.67;88.36;101374.56;5138466;27;20225;-74
2021/12/18 04:13:02;;;;;;;18.30;14.35;;;;;;;6.91;86.75;101366.19;5132419;28;20684;-74
2021/12/18 04:15:29;;;;;;;21.38;14.95;;;;;;;6.92;86.63;101362.59;5132443;28;20215;-74
2021/12/18 04:17:57;;;;;;;16.58;12.48;;;;;;;6.97;86.02;101366.97;5132388;28;20282;-74
2021/12/18 04:20:24;;;;;;;20.13;15.32;;;;;;;7.01;85.95;101358.00;5133611;27;20551;-73
2021/12/18 04:22:51;;;;;;;20.23;15.38;;;;;;;6.94;85.85;101358.09;5138218;27;20547;-73
2021/12/18 04:25:19;;;;;;;15.43;12.57;;;;;;;7.07;85.46;101360.56;5134438;27;20215;-73
2021/12/18 04:27:45;;;;;;;21.10;14.10;;;;;;;6.88;86.35;101357.28;5136451;27;20206;-74
2021/12/18 04:30:13;;;;;;;20.10;14.13;;;;;;;6.95;86.52;101360.75;5136065;27;20227;-75
2021/12/18 04:32:40;;;;;;;17.20;12.43;;;;;;;7.12;85.68;101362.28;5147449;27;20624;-74
2021/12/18 04:35:09;;;;;;;19.25;13.90;;;;;;;6.91;86.12;101359.03;5136336;27;20359;-75
2021/12/18 04:37:36;;;;;;;18.08;13.05;;;;;;;6.84;86.75;101360.03;5142248;27;20270;-73
2021/12/18 04:40:03;;;;;;;20.48;14.35;;;;;;;6.81;87.47;101347.56;5156851;27;20202;-73
2021/12/18 04:42:30;;;;;;;18.55;13.45;;;;;;;6.84;87.37;101358.22;5157000;27;20278;-73
2021/12/18 04:44:56;;;;;;;22.02;15.68;;;;;;;6.81;87.50;101354.72;5156723;27;20219;-73
2021/12/18 04:47:23;;;;;;;18.58;13.15;;;;;;;6.95;86.66;101344.69;5151590;27;20294;-74
2021/12/18 04:49:50;;;;;;;23.70;13.40;;;;;;;6.78;87.55;101350.28;5140337;27;20270;-73
2021/12/18 04:52:18;;;;;;;19.85;14.05;;;;;;;6.99;87.02;101356.25;5141474;27;20198;-73
2021/12/18 04:54:45;;;;;;;33.45;14.73;;;;;;;7.04;86.06;101357.94;5154912;27;20202;-75
2021/12/18 04:57:12;;;;;;;19.92;14.48;;;;;;;6.74;87.67;101363.72;5136802;27;20198;-73
2021/12/18 04:59:43;;;;;;;20.80;15.35;;;;;;;6.84;87.67;101354.69;5136941;27;21169;-73
2021/12/18 05:02:10;;;;;;;18.25;12.63;;;;;;;6.78;88.05;101358.31;5151495;27;20195;-75
2021/12/18 05:04:37;;;;;;;21.13;13.70;;;;;;;6.80;87.94;101353.81;5156072;27;20305;-75
2021/12/18 05:07:04;;;;;;;21.98;14.00;;;;;;;6.79;88.48;101345.84;5149435;27;20267;-73
2021/12/18 05:09:32;;;;;;;18.85;13.20;;;;;;;6.74;88.01;101356.63;5135549;27;20655;-73
2021/12/18 05:11:58;;;;;;;23.23;14.50;;;;;;;6.80;88.30;101364.53;5140413;27;20196;-75
2021/12/18 05:14:25;;;;;;;16.98;11.85;;;;;;;6.51;88.90;101362.25;5155776;27;20184;-74
2021/12/18 05:16:52;;;;;;;18.25;13.82;;;;;;;6.48;89.72;101359.63;5156115;27;20259;-74
2021/12/18 05:19:19;;;;;;;20.65;14.55;;;;;;;6.67;89.78;101360.25;5156051;27;20628;-73
2021/12/18 05:21:46;;;;;;;18.05;13.43;;;;;;;6.97;87.37;101363.44;5150464;27;20197;-73
2021/12/18 05:24:12;;;;;;;17.50;13.57;;;;;;;7.06;86.77;101366.84;5152941;27;20221;-73
2021/12/18 05:26:40;;;;;;;16.08;12.85;;;;;;;6.96;86.96;101370.56;5155615;27;20204;-74
2021/12/18 05:29:07;;;;;;;19.00;13.60;;;;;;;6.66;88.58;101382.59;5155703;27;20214;-73
2021/12/18 05:31:35;;;;;;;19.30;13.75;;;;;;;6.81;88.60;101373.47;5151293;27;20267;-73
2021/12/18 05:34:03;;;;;;;23.60;15.75;;;;;;;6.74;88.61;101379.78;5151522;27;20191;-73
2021/12/18 05:36:39;;;;;;;21.63;13.77;;;;;;;6.76;88.73;101378.00;5150334;27;20219;-73
2021/12/18 05:39:08;;;;;;;22.08;13.80;;;;;;;6.79;88.44;101378.84;5155401;27;20208;-73
2021/12/18 05:41:36;;;;;;;17.92;13.43;;;;;;;6.98;87.11;101381.25;5150153;27;20191;-73
2021/12/18 05:44:05;;;;;;;21.58;14.25;;;;;;;6.99;86.94;101378.56;5155183;27;20315;-73
2021/12/18 05:46:32;;;;;;;17.65;13.88;;;;;;;7.05;86.73;101377.56;5139364;27;20192;-73
2021/12/18 05:48:58;;;;;;;19.63;14.13;;;;;;;7.12;85.98;101386.41;5134265;27;20207;-74
2021/12/18 05:51:25;;;;;;;19.48;13.23;;;;;;;7.12;85.78;101383.72;5144111;27;20192;-73
2021/12/18 05:53:52;;;;;;;17.23;12.73;;;;;;;7.04;85.93;101387.41;5155345;27;20188;-73
2021/12/18 05:56:19;;;;;;;19.60;14.40;;;;;;;6.97;86.53;101384.84;5155344;27;20281;-74
2021/12/18 05:58:45;;;;;;;22.02;14.60;;;;;;;7.15;85.59;101381.88;5155028;27;20205;-74
2021/12/18 06:01:15;;;;;;;21.83;14.90;;;;;;;7.12;85.47;101389.06;5142256;27;20195;-74
2021/12/18 06:03:42;;;;;;;20.85;15.20;;;;;;;7.16;85.56;101386.31;5134129;27;20224;-74
2021/12/18 06:06:08;;;;;;;22.88;15.40;;;;;;;7.12;85.93;101387.28;5142389;27;20623;-73
2021/12/18 06:08:36;;;;;;;21.55;14.98;;;;;;;7.20;85.46;101389.84;5151466;27;20301;-75
2021/12/18 06:11:08;;;;;;;19.50;14.23;;;;;;;7.04;85.51;101381.16;5155060;27;20197;-73
2021/12/18 06:13:36;;;;;;;21.13;14.05;;;;;;;6.92;85.59;101379.56;5154820;27;20180;-73
2021/12/18 06:16:05;;;;;;;23.08;15.20;;;;;;;6.91;85.37;101391.16;5146807;27;20187;-73
2021/12/18 06:18:34;;;;;;;18.30;13.80;;;;;;;6.72;86.39;101381.66;5133753;27;20207;-73
2021/12/18 06:21:00;;;;;;;25.73;16.92;;;;;;;6.68;87.27;101392.38;5149191;27;20193;-73
2021/12/18 06:23:27;;;;;;;20.10;13.90;;;;;;;6.72;86.89;101390.56;5140684;27;20231;-75
2021/12/18 06:25:54;;;;;;;22.23;15.40;;;;;;;6.58;87.44;101388.06;5133594;27;20226;-72
2021/12/18 06:28:20;;;;;;;19.70;14.45;;;;;;;6.59;87.69;101383.59;5133701;27;20187;-72
2021/12/18 06:30:47;;;;;;;21.67;15.63;;;;;;;6.62;87.67;101386.22;5133564;27;20592;-74
2021/12/18 06:33:13;;;;;;;22.02;14.95;;;;;;;6.64;87.47;101387.09;5140893;27;20188;-74
2021/12/18 06:35:41;;;;;;;20.35;14.02;;;;;;;6.65;87.11;101387.06;5133904;27;20182;-74
2021/12/18 06:38:08;;;;;;;21.92;14.65;;;;;;;6.53;87.31;101386.34;5135912;27;20191;-74
2021/12/18 06:40:35;;;;;;;23.67;16.63;;;;;;;6.64;87.21;101379.94;5154460;27;20202;-74
2021/12/18 06:43:02;;;;;;;26.20;16.92;;;;;;;6.63;87.03;101386.19;5154195;27;20209;-74
2021/12/18 06:45:28;;;;;;;20.42;14.90;;;;;;;6.64;86.82;101385.28;5154309;27;20241;-75
2021/12/18 06:47:55;;;;;;;21.20;15.00;;;;;;;6.51;87.42;101385.47;5148527;27;20185;-74
2021/12/18 06:50:23;;;;;;;20.15;14.13;;;;;;;6.17;89.13;101386.78;5137335;27;20187;-74
2021/12/18 06:52:50;;;;;;;17.83;12.52;;;;;;;5.87;91.02;101387.06;5133582;27;20186;-75
2021/12/18 06:55:17;;;;;;;23.20;16.55;;;;;;;5.99;91.10;101385.19;5133530;27;20203;-74
2021/12/18 06:57:44;;;;;;;19.95;13.95;;;;;;;5.92;91.21;101382.56;5134999;27;20673;-74
2021/12/18 07:00:15;;;;;;;20.33;13.77;;;;;;;6.04;90.09;101391.38;5154168;27;20193;-74
2021/12/18 07:02:43;;;;;;;21.55;14.48;;;;;;;6.19;89.39;101384.94;5149238;27;20179;-74
2021/12/18 07:05:11;;;;;;;21.20;14.38;;;;;;;5.77;91.57;101383.63;5149886;27;20215;-74
2021/12/18 07:07:38;;;;;;;19.48;13.20;;;;;;;5.62;92.97;101379.28;5153849;27;20198;-74
2021/12/18 07:10:08;;;;;;;21.35;13.18;;;;;;;5.77;92.32;101386.28;5153539;27;20290;-74
2021/12/18 07:12:35;;;;;;;22.13;14.60;;;;;;;5.83;92.39;101388.88;5153908;27;20269;-74
2021/12/18 07:15:02;;;;;;;22.17;14.23;;;;;;;5.73;92.88;101393.44;5142785;27;20191;-74
2021/12/18 07:17:28;;;;;;;20.88;13.95;;;;;;;5.75;93.32;101393.44;5152988;27;20191;-74
2021/12/18 07:19:55;;;;;;;26.58;15.00;;;;;;;5.82;92.82;101393.34;5145986;27;20189;-76
2021/12/18 07:22:21;;;;;;;23.15;15.07;;;;;;;5.97;91.55;101395.03;5147915;27;20202;-76
2021/12/18 07:24:48;;;;;;;21.08;14.55;;;;;;;5.74;92.71;101397.88;5153489;27;20628;-76
2021/12/18 07:27:16;;;;;;;19.52;13.55;;;;;;;5.50;93.59;101407.00;5153211;27;20552;-76
2021/12/18 07:29:43;;;;;;;22.60;15.13;;;;;;;5.40;95.05;101398.19;5152868;27;20231;-76
2021/12/18 07:32:10;;;;;;;21.50;13.27;;;;;;;5.60;93.77;101392.66;5153471;27;20206;-76
2021/12/18 07:34:37;;;;;;;21.25;13.27;;;;;;;5.42;95.27;101396.38;5153198;27;20185;-76
2021/12/18 07:37:04;;;;;;;20.52;13.90;;;;;;;5.47;95.67;101400.78;5152963;27;20191;-76
2021/12/18 07:39:30;;;;;;;18.92;12.65;;;;;;;5.53;95.07;101398.09;5153424;27;20637;-76
2021/12/18 07:41:57;;;;;;;21.77;14.88;;;;;;;5.74;93.20;101405.88;5153033;27;20281;-76
2021/12/18 07:44:25;;;;;;;19.92;13.68;;;;;;;5.75;92.73;101399.66;5152942;27;20290;-76
2021/12/18 07:46:52;;;;;;;17.98;13.25;;;;;;;5.79;92.41;101396.06;5152852;27;20195;-76
2021/12/18 07:49:19;;;;;;;19.15;13.20;;;;;;;5.87;91.71;101401.31;5152634;27;20182;-76
2021/12/18 07:51:45;;;;;;;20.40;14.38;;;;;;;5.84;91.57;101390.66;5152765;27;20298;-76
2021/12/18 07:54:12;;;;;;;21.27;13.88;;;;;;;5.95;90.54;101396.81;5152834;27;20273;-75
2021/12/18 07:56:38;;;;;;;16.35;12.63;;;;;;;5.82;90.50;101384.44;5153228;27;20529;-77
2021/12/18 07:59:05;;;;;;;17.02;12.98;;;;;;;5.82;90.78;101389.78;5153316;27;20493;-76
2021/12/18 08:01:33;;;;;;;16.13;11.85;;;;;;;5.88;90.62;101387.06;5156673;27;20201;-76
2021/12/18 08:04:00;;;;;;;18.80;13.55;;;;;;;5.68;91.22;101387.25;5156689;27;20197;-76
2021/12/18 08:06:26;;;;;;;17.70;12.70;;;;;;;5.48;92.33;101390.09;5156842;27;20313;-78
2021/12/18 08:08:53;;;;;;;20.13;13.98;;;;;;;5.47;93.28;101392.78;5156930;27;20278;-76
2021/12/18 08:11:20;;;;;;;16.52;13.00;;;;;;;5.35;94.09;101397.31;5156730;27;20186;-76
2021/12/18 08:13:46;;;;;;;20.02;13.80;;;;;;;5.42;93.77;101390.16;5157185;27;20209;-76
2021/12/18 08:16:13;;;;;;;17.92;13.27;;;;;;;5.37;93.80;101386.63;5156912;27;20273;-76
2021/12/18 08:18:41;;;;;;;19.23;13.68;;;;;;;5.13;95.26;101387.69;5156722;27;20229;-76
2021/12/18 08:21:08;;;;;;;18.52;13.57;;;;;;;5.10;96.16;101380.59;5156876;27;20193;-76
2021/12/18 08:23:34;;;;;;;20.80;14.55;;;;;;;5.25;95.94;101387.63;5157018;27;20609;-73
2021/12/18 08:26:01;;;;;;;21.90;15.05;;;;;;;5.34;95.08;101382.22;5156489;27;20271;-73
2021/12/18 08:28:28;;;;;;;22.95;14.00;;;;;;;5.46;94.24;101377.66;5157028;27;20186;-75
2021/12/18 08:30:55;;;;;;;19.13;13.65;;;;;;;5.48;94.39;101374.06;5140922;27;20229;-76
2021/12/18 08:33:21;;;;;;;21.58;15.18;;;;;;;5.46;94.38;101377.66;5136084;27;20179;-74
2021/12/18 08:35:49;;;;;;;21.58;14.43;;;;;;;5.34;94.10;101382.22;5135606;27;20195;-77
2021/12/18 08:38:16;;;;;;;25.55;14.93;;;;;;;5.39;95.28;101377.72;5135778;27;20226;-77
2021/12/18 08:40:43;;;;;;;22.67;15.98;;;;;;;5.40;94.90;101382.16;5135424;27;20294;-77
2021/12/18 08:43:10;;;;;;;24.77;15.60;;;;;;;5.40;93.71;101376.81;5135247;27;20256;-77
2021/12/18 08:45:37;;;;;;;23.83;16.50;;;;;;;5.47;93.63;101379.41;5135522;27;20219;-77
2021/12/18 08:48:05;;;;;;;24.20;15.63;;;;;;;5.64;91.97;101380.16;5135640;27;20260;-76
2021/12/18 08:50:31;;;;;;;23.17;15.23;;;;;;;5.87;90.83;101373.72;5135831;27;20534;-77
2021/12/18 08:52:59;;;;;;;24.02;15.70;;;;;;;6.02;89.79;101382.47;5135818;27;20198;-76
2021/12/18 08:55:26;;;;;;;22.58;16.40;;;;;;;5.89;89.42;101366.56;5135183;27;20279;-75
2021/12/18 08:57:53;;;;;;;23.20;16.10;;;;;;;5.96;89.74;101377.19;5135589;27;20199;-77
2021/12/18 09:00:22;;;;;;;24.00;16.23;;;;;;;5.95;88.80;101370.09;5135255;27;20180;-76
2021/12/18 09:02:51;;;;;;;21.65;15.70;;;;;;;5.85;89.73;101371.03;5135534;27;20665;-76
2021/12/18 09:05:18;;;;;;;20.27;15.48;;;;;;;5.77;90.29;101375.59;5135281;27;20233;-76
2021/12/18 09:07:45;;;;;;;24.60;16.17;;;;;;;5.80;89.39;101375.56;5135486;27;20203;-76
2021/12/18 09:10:14;;;;;;;22.92;15.13;;;;;;;5.64;89.81;101377.50;5134744;27;20271;-76
2021/12/18 09:12:42;;;;;;;22.48;15.15;;;;;;;5.62;89.66;101368.59;5134681;27;20366;-77
2021/12/18 09:15:10;;;;;;;22.00;14.63;;;;;;;5.66;89.18;101378.38;5135127;27;20279;-77
2021/12/18 09:17:37;;;;;;;19.88;14.20;;;;;;;5.51;89.83;101375.81;5135017;27;20940;-76
